createdAt,value
2018-07-04T19:24:36.368Z,26.64
2018-07-04T19:25:51.112Z,26.6
2018-07-04T19:27:09.255Z,26.53
2018-07-04T19:28:24.100Z,26.48
2018-07-04T19:29:38.961Z,26.41
2018-07-04T19:30:53.731Z,26.34
2018-07-04T19:32:08.779Z,26.28
2018-07-04T19:33:23.421Z,26.22
2018-07-04T19:34:38.384Z,26.17
2018-07-04T19:35:53.259Z,26.13
2018-07-04T19:37:08.614Z,26.09
2018-07-04T19:38:23.952Z,26.05
2018-07-04T19:39:38.627Z,26.01
2018-07-04T19:40:53.464Z,25.97
2018-07-04T19:42:08.284Z,25.94
2018-07-04T19:43:24.436Z,25.89
2018-07-04T19:44:40.127Z,25.83
2018-07-04T19:45:55.771Z,25.78
2018-07-04T19:47:10.538Z,25.74
2018-07-04T19:48:25.444Z,25.7
2018-07-04T19:49:40.140Z,25.63
2018-07-04T19:50:55.629Z,25.57
2018-07-04T19:52:10.531Z,25.5
2018-07-04T19:53:25.442Z,25.45
2018-07-04T19:54:40.296Z,25.4
2018-07-04T19:55:55.582Z,25.36
2018-07-04T19:57:10.507Z,25.32
2018-07-04T19:58:25.260Z,25.26
2018-07-04T19:59:39.716Z,25.2
2018-07-04T20:00:54.549Z,25.14
2018-07-04T20:02:09.333Z,25.08
2018-07-04T20:03:23.553Z,25
2018-07-04T20:04:38.294Z,24.93
2018-07-04T20:05:52.625Z,24.88
2018-07-04T20:07:07.190Z,24.81
2018-07-04T20:08:21.434Z,24.76
2018-07-04T20:09:35.828Z,24.71
2018-07-04T20:10:50.574Z,24.66
2018-07-04T20:12:04.915Z,24.62
2018-07-04T20:13:19.255Z,24.59
2018-07-04T20:14:34.479Z,24.54
2018-07-04T20:15:48.815Z,24.52
2018-07-04T20:17:03.392Z,24.51
2018-07-04T20:18:18.525Z,24.49
2018-07-04T20:19:32.598Z,24.49
2018-07-04T20:20:47.314Z,24.49
2018-07-04T20:22:01.986Z,24.46
2018-07-04T20:23:16.924Z,24.47
2018-07-04T20:24:31.563Z,24.45
2018-07-04T20:25:46.205Z,24.46
2018-07-04T20:27:01.407Z,24.45
2018-07-04T20:28:19.903Z,24.45
2018-07-04T20:29:34.705Z,24.45
2018-07-04T20:30:48.724Z,24.42
2018-07-04T20:32:03.126Z,24.4
2018-07-04T20:33:17.264Z,24.38
2018-07-04T20:34:31.646Z,24.36
2018-07-04T20:35:46.697Z,24.36
2018-07-04T20:37:01.208Z,24.35
2018-07-04T20:38:17.475Z,24.35
2018-07-04T20:39:32.055Z,24.34
2018-07-04T20:40:46.643Z,24.33
2018-07-04T20:42:01.265Z,24.32
2018-07-04T20:43:15.483Z,24.31
2018-07-04T20:44:32.005Z,24.3
2018-07-04T20:45:47.871Z,24.31
2018-07-04T20:47:02.028Z,24.31
2018-07-04T20:48:17.109Z,24.31
2018-07-04T20:49:32.561Z,24.31
2018-07-04T20:50:46.564Z,24.32
2018-07-04T20:52:01.519Z,24.31
2018-07-04T20:53:15.843Z,24.3
2018-07-04T20:54:30.896Z,24.29
2018-07-04T20:55:46.092Z,24.28
2018-07-04T20:57:00.985Z,24.24
2018-07-04T20:58:15.431Z,24.19
2018-07-04T20:59:29.746Z,24.16
2018-07-04T21:00:44.101Z,24.15
2018-07-04T21:01:58.691Z,24.11
2018-07-04T21:03:12.749Z,24.07
2018-07-04T21:04:27.406Z,24.05
2018-07-04T21:05:42.191Z,24.04
2018-07-04T21:06:57.726Z,24.01
2018-07-04T21:08:12.761Z,23.98
2018-07-04T21:09:27.854Z,23.96
2018-07-04T21:10:43.674Z,23.94
2018-07-04T21:11:58.743Z,23.91
2018-07-04T21:13:13.247Z,23.88
2018-07-04T21:14:27.741Z,23.85
2018-07-04T21:15:42.546Z,23.83
2018-07-04T21:16:57.534Z,23.78
2018-07-04T21:18:12.584Z,23.76
2018-07-04T21:19:27.156Z,23.71
2018-07-04T21:20:42.837Z,23.67
2018-07-04T21:21:57.677Z,23.63
2018-07-04T21:23:12.818Z,23.58
2018-07-04T21:24:27.897Z,23.53
2018-07-04T21:25:42.498Z,23.48
2018-07-04T21:26:57.501Z,23.45
2018-07-04T21:28:12.594Z,23.38
2018-07-04T21:29:26.947Z,23.33
2018-07-04T21:30:42.025Z,23.29
2018-07-04T21:31:57.144Z,23.25
2018-07-04T21:33:12.300Z,23.21
2018-07-04T21:34:26.783Z,23.17
2018-07-04T21:35:41.075Z,23.14
2018-07-04T21:36:56.178Z,23.09
2018-07-04T21:38:10.660Z,23.06
2018-07-04T21:39:24.922Z,23.02
2018-07-04T21:40:39.591Z,23
2018-07-04T21:41:54.475Z,22.99
2018-07-04T21:43:09.196Z,22.97
2018-07-04T21:44:23.517Z,22.93
2018-07-04T21:45:38.573Z,22.87
2018-07-04T21:46:52.658Z,22.83
2018-07-04T21:48:06.707Z,22.78
2018-07-04T21:49:21.477Z,22.73
2018-07-04T21:50:36.033Z,22.69
2018-07-04T21:51:50.813Z,22.65
2018-07-04T21:53:06.200Z,22.64
2018-07-04T21:54:22.031Z,22.63
2018-07-04T21:55:36.281Z,22.63
2018-07-04T21:56:50.577Z,22.61
2018-07-04T21:58:05.729Z,22.59
2018-07-04T21:59:20.568Z,22.55
2018-07-04T22:00:35.565Z,22.53
2018-07-04T22:01:50.323Z,22.51
2018-07-04T22:03:04.885Z,22.49
2018-07-04T22:04:19.842Z,22.45
2018-07-04T22:05:34.697Z,22.42
2018-07-04T22:06:49.453Z,22.39
2018-07-04T22:08:04.019Z,22.35
2018-07-04T22:09:18.472Z,22.32
2018-07-04T22:10:33.670Z,22.29
2018-07-04T22:11:54.739Z,22.24
2018-07-04T22:13:09.471Z,22.19
2018-07-04T22:14:24.151Z,22.14
2018-07-04T22:15:38.857Z,22.08
2018-07-04T22:16:54.821Z,22.03
2018-07-04T22:18:09.595Z,22
2018-07-04T22:19:24.365Z,21.95
2018-07-04T22:20:38.802Z,21.91
2018-07-04T22:21:53.044Z,21.89
2018-07-04T22:23:06.963Z,21.87
2018-07-04T22:24:21.511Z,21.86
2018-07-04T22:25:36.732Z,21.85
2018-07-04T22:26:51.219Z,21.85
2018-07-04T22:28:05.745Z,21.85
2018-07-04T22:29:20.710Z,21.85
2018-07-04T22:30:35.670Z,21.85
2018-07-04T22:31:50.711Z,21.84
2018-07-04T22:33:05.310Z,21.83
2018-07-04T22:34:19.512Z,21.83
2018-07-04T22:35:34.053Z,21.83
2018-07-04T22:36:49.212Z,21.84
2018-07-04T22:38:04.596Z,21.84
2018-07-04T22:39:19.253Z,21.85
2018-07-04T22:40:34.011Z,21.84
2018-07-04T22:41:48.266Z,21.84
2018-07-04T22:43:02.635Z,21.83
2018-07-04T22:44:17.412Z,21.83
2018-07-04T22:45:31.662Z,21.82
2018-07-04T22:46:46.132Z,21.8
2018-07-04T22:48:00.910Z,21.81
2018-07-04T22:49:15.511Z,21.8
2018-07-04T22:50:30.535Z,21.78
2018-07-04T22:51:45.006Z,21.74
2018-07-04T22:52:59.570Z,21.73
2018-07-04T22:54:14.383Z,21.69
2018-07-04T22:55:28.590Z,21.65
2018-07-04T22:56:43.568Z,21.61
2018-07-04T22:57:58.330Z,21.59
2018-07-04T22:59:13.176Z,21.57
2018-07-04T23:00:27.616Z,21.54
2018-07-04T23:01:42.057Z,21.5
2018-07-04T23:02:56.026Z,21.48
2018-07-04T23:04:10.334Z,21.45
2018-07-04T23:05:24.280Z,21.42
2018-07-04T23:06:38.235Z,21.41
2018-07-04T23:07:52.957Z,21.39
2018-07-04T23:09:08.337Z,21.36
2018-07-04T23:10:22.324Z,21.32
2018-07-04T23:11:37.073Z,21.31
2018-07-04T23:12:51.807Z,21.28
2018-07-04T23:14:06.013Z,21.27
2018-07-04T23:15:20.307Z,21.23
2018-07-04T23:16:35.065Z,21.22
2018-07-04T23:17:49.781Z,21.22
2018-07-04T23:19:04.636Z,21.21
2018-07-04T23:20:18.597Z,21.2
2018-07-04T23:21:33.643Z,21.21
2018-07-04T23:22:47.884Z,21.19
2018-07-04T23:24:02.330Z,21.17
2018-07-04T23:25:17.123Z,21.13
2018-07-04T23:26:31.856Z,21.11
2018-07-04T23:27:46.614Z,21.1
2018-07-04T23:29:01.060Z,21.1
2018-07-04T23:30:15.639Z,21.09
2018-07-04T23:31:29.835Z,21.08
2018-07-04T23:32:44.050Z,21.06
2018-07-04T23:33:58.520Z,21.02
2018-07-04T23:35:13.063Z,21
2018-07-04T23:36:27.045Z,20.96
2018-07-04T23:37:42.048Z,20.92
2018-07-04T23:38:56.781Z,20.88
2018-07-04T23:40:11.145Z,20.84
2018-07-04T23:41:26.176Z,20.82
2018-07-04T23:42:40.678Z,20.78
2018-07-04T23:43:54.951Z,20.73
2018-07-04T23:45:10.135Z,20.68
2018-07-04T23:46:25.380Z,20.65
2018-07-04T23:47:39.888Z,20.65
2018-07-04T23:48:54.358Z,20.64
2018-07-04T23:50:08.885Z,20.64
2018-07-04T23:51:23.380Z,20.65
2018-07-04T23:52:37.895Z,20.66
2018-07-04T23:53:52.373Z,20.67
2018-07-04T23:55:06.749Z,20.7
2018-07-04T23:56:21.495Z,20.68
2018-07-04T23:57:36.179Z,20.67
2018-07-04T23:58:50.474Z,20.65
